KMIAMDPP

Guest
Details From KMIA - Miami Intl
To MDPP - Puerto Plata Gregorio Luperon Intl
Flight Number -
Tags generated
Created
Modified
Stats Distance 660 nm / 1,223 km
Max Altitude 35,000 ft / 10,668 m
Waypoints 12
Social Downloads 5
Likes 0
Share VATSIM

Download

Looking for another format? Having issues loading an existing format? Contact us
Advertisement - Login to hide

Notes

Basic altitude profile: - Ascent Rate: 2500ft/min - Ascent Speed: 250kts - Cruise Altitude: 35000ft - Cruise Speed: 420kts - Descent Rate: 1500ft/min - Descent Speed: 250kts Options: - Use NATs: yes - Use PACOTS: yes - Use low airways: yes - Use high airways: yes

Route

KMIA LUCSS BR49V TINKY A315 ZIN A636 ALBEE MDPP

ID Type Via Altitude Latitude Longitude Leg Dist Tot Dist Heading (true) Name
O KMIA APT - 0 ft / 0 m 25.79617˚ -80.28974˚ - 0 nm - Miami Intl
LUCSS FIX - 35,000 ft / 10,668 m 24.96908˚ -78.60673˚ 103 nm 103 nm 118° / 119° -
TINKY FIX BR49V (AWY-HI) 35,000 ft / 10,668 m 24.98012˚ -78.39368˚ 11 nm 115 nm 87° / 87° -
PLUMA FIX A315 (AWY-HI) 35,000 ft / 10,668 m 24.73779˚ -78.09611˚ 21 nm 137 nm 132° / 132° -
JAYEE FIX A315 (AWY-HI) 35,000 ft / 10,668 m 24.43216˚ -77.72351˚ 27 nm 164 nm 132° / 132° -
HODGY FIX A315 (AWY-HI) 35,000 ft / 10,668 m 24.16050˚ -77.39478˚ 24 nm 189 nm 132° / 132° -
AMBIS FIX A315 (AWY-HI) 35,000 ft / 10,668 m 23.73163˚ -76.88019˚ 38 nm 227 nm 132° / 132° -
DUNNO FIX A315 (AWY-HI) 35,000 ft / 10,668 m 22.92841˚ -75.93128˚ 71 nm 298 nm 132° / 133° -
ACMEE FIX A315 (AWY-HI) 35,000 ft / 10,668 m 22.17438˚ -75.05638˚ 66 nm 364 nm 133° / 133° -
ZIN NDB A315 (AWY-HI) 35,000 ft / 10,668 m 20.95972˚ -73.67750˚ 106 nm 470 nm 133° / 134° GREAT INAGUA NDB
ALBEE FIX A636 (AWY-HI) 21,500 ft / 6,553 m 20.41833˚ -72.29500˚ 84 nm 555 nm 112° / 113° -
O MDPP APT - 0 ft / 0 m 19.75790˚ -70.57003˚ 105 nm 660 nm 112° / 112° Puerto Plata Gregorio Luperon Intl

Altitude Profile

Advertisement - Login to hide

Weather


0- 5 10 15 20 25 30 35+ Temperature / ° C

Clouds and Precipitation
Forecast for 2017-12-12 00:00 UTC. Updated 2 hours ago

Ground ~20,000 ft ~40,000 ft Winds

KMIA

Details ICAO KMIA (MIA)
Name Miami Intl
Region United States
Timezone America/New_York (UTC-5.0)
Stats Elevation 8 ft / 2 m (AMSL)
Location 25.796167° -80.289742°
Runways 4
Magnetic Variation 6.640° W

METAR

KMIA 112053Z 33006KT 10SM FEW035 FEW250 20/M02 A3015 RMK AO2 SLP211 T02001022 56012 $

Decode

TAF

TAF AMD KMIA 112102Z 1121/1224 33008KT P6SM FEW030 FEW250 FM120000 VRB03KT P6SM SCT030 FM121500 29010KT P6SM SCT030 FM122300 VRB04KT P6SM SCT030

Decode

Departure Runways

ID Width Length Bearing (true) Bearing (mag) Surface Threshold Offset Overrun Length
08L 151 ft / 46 m 8,588 ft / 2,618 m 87.35° 93.99° Asphalt 0 ft / 0 m 1,001 ft / 305 m
08R 200 ft / 61 m 10,490 ft / 3,197 m 87.37° 94.01° Asphalt 0 ft / 0 m 1,001 ft / 305 m
09 151 ft / 46 m 12,981 ft / 3,957 m 87.36° 94.00° Asphalt 1,348 ft / 411 m 1,001 ft / 305 m
12 151 ft / 46 m 9,353 ft / 2,851 m 119.60° 126.24° Asphalt 0 ft / 0 m 1,001 ft / 305 m
26L 200 ft / 61 m 10,490 ft / 3,197 m 267.38° 274.02° Asphalt 0 ft / 0 m 1,001 ft / 305 m
26R 151 ft / 46 m 8,588 ft / 2,618 m 267.37° 274.01° Asphalt 0 ft / 0 m 1,001 ft / 305 m
27 151 ft / 46 m 12,981 ft / 3,957 m 267.38° 274.02° Asphalt 1,270 ft / 387 m 899 ft / 274 m
30 151 ft / 46 m 9,353 ft / 2,851 m 299.61° 306.25° Asphalt 938 ft / 286 m 427 ft / 130 m

MDPP

Details ICAO MDPP (POP)
Name Puerto Plata Gregorio Luperon Intl
Region Dominican Republic
Timezone America/Santo_Domingo (UTC-4.0)
Stats Elevation 15 ft / 5 m (AMSL)
Location 19.757900° -70.570035°
Runways 1
Magnetic Variation 11.227° W

METAR

MDPP 112100Z 09010KT 9999 FEW020 28/23 Q1011 METAR MDST 112100Z 16006KT 9999 FEW026 SCT300 29/21 Q1011 NOSIG METAR MDPC 112100Z 04004KT 9999 FEW024 26/20 Q1012

Decode

TAF

Not found

Destination Runways

ID Width Length Bearing (true) Bearing (mag) Surface Threshold Offset Overrun Length
08 151 ft / 46 m 10,101 ft / 3,079 m 72.95° 84.18° Asphalt 0 ft / 0 m 0 ft / 0 m
26 151 ft / 46 m 10,101 ft / 3,079 m 252.95° 264.18° Asphalt 0 ft / 0 m 0 ft / 0 m

Popular Alternatives